createdAt,value
2023-07-23T00:00:49.559Z,2.20
2023-07-23T00:03:17.664Z,3.50
2023-07-23T00:05:46.174Z,3.80
2023-07-23T00:08:14.729Z,1.70
2023-07-23T00:10:42.463Z,3.47
2023-07-23T00:13:10.130Z,2.50
2023-07-23T00:15:37.828Z,2.27
2023-07-23T00:18:05.408Z,2.50
2023-07-23T00:20:32.592Z,2.37
2023-07-23T00:23:00.123Z,2.60
2023-07-23T00:25:27.690Z,2.30
2023-07-23T00:27:54.820Z,1.70
2023-07-23T00:30:22.405Z,2.03
2023-07-23T00:32:49.694Z,2.77
2023-07-23T00:35:16.995Z,2.77
2023-07-23T00:37:44.559Z,2.43
2023-07-23T00:40:12.856Z,3.63
2023-07-23T00:42:40.340Z,2.43
2023-07-23T00:45:08.371Z,2.80
2023-07-23T00:47:36.166Z,2.57
2023-07-23T00:50:04.733Z,2.10
2023-07-23T00:52:32.591Z,3.90
2023-07-23T00:55:00.536Z,2.50
2023-07-23T00:57:28.105Z,2.70
2023-07-23T00:59:57.914Z,2.63
2023-07-23T01:02:28.885Z,3.00
2023-07-23T01:04:57.138Z,2.40
2023-07-23T01:07:26.998Z,3.47
2023-07-23T01:09:55.155Z,2.83
2023-07-23T01:12:22.814Z,2.60
2023-07-23T01:14:51.014Z,3.80
2023-07-23T01:17:20.900Z,2.33
2023-07-23T01:20:00.283Z,3.10
2023-07-23T01:22:27.522Z,3.00
2023-07-23T01:24:55.152Z,3.47
2023-07-23T01:27:22.705Z,2.53
2023-07-23T01:29:50.223Z,3.33
2023-07-23T01:32:17.973Z,2.63
2023-07-23T01:34:46.263Z,3.03
2023-07-23T01:37:15.103Z,2.47
2023-07-23T01:39:44.608Z,2.47
2023-07-23T01:42:13.187Z,2.70
2023-07-23T01:44:40.497Z,3.50
2023-07-23T01:47:08.149Z,2.47
2023-07-23T01:49:35.298Z,2.50
2023-07-23T01:52:03.014Z,2.80
2023-07-23T01:54:30.206Z,2.30
2023-07-23T01:56:58.068Z,2.50
2023-07-23T01:59:25.662Z,3.03
2023-07-23T02:01:53.282Z,3.17
2023-07-23T02:04:20.451Z,2.47
2023-07-23T02:06:48.128Z,2.97
2023-07-23T02:09:21.540Z,2.67
2023-07-23T02:11:48.816Z,2.30
2023-07-23T02:14:16.770Z,2.97
2023-07-23T02:16:44.393Z,1.90
2023-07-23T02:19:12.828Z,2.73
2023-07-23T02:21:40.366Z,2.63
2023-07-23T02:24:08.046Z,3.07
2023-07-23T02:26:35.243Z,2.80
2023-07-23T02:29:02.777Z,2.70
2023-07-23T02:31:30.366Z,2.13
2023-07-23T02:33:57.971Z,2.13
2023-07-23T02:36:25.499Z,2.70
2023-07-23T02:38:53.115Z,2.67
2023-07-23T02:41:20.747Z,3.03
2023-07-23T02:43:48.265Z,2.00
2023-07-23T02:46:15.849Z,1.83
2023-07-23T02:48:43.389Z,2.30
2023-07-23T02:51:10.897Z,2.30
2023-07-23T02:53:38.070Z,1.97
2023-07-23T02:56:05.773Z,1.87
2023-07-23T02:58:33.034Z,1.77
2023-07-23T03:01:00.587Z,2.43
2023-07-23T03:03:28.122Z,2.80
2023-07-23T03:05:55.717Z,2.77
2023-07-23T03:08:23.296Z,2.57
2023-07-23T03:10:50.471Z,2.40
2023-07-23T03:13:18.007Z,3.03
2023-07-23T03:15:45.507Z,2.83
2023-07-23T03:18:13.007Z,3.10
2023-07-23T03:20:40.824Z,2.27
2023-07-23T03:23:08.157Z,2.77
2023-07-23T03:25:35.741Z,1.80
2023-07-23T03:28:04.586Z,2.40
2023-07-23T03:30:32.140Z,3.00
2023-07-23T03:32:59.347Z,2.70
2023-07-23T03:35:26.626Z,2.37
2023-07-23T03:37:54.730Z,3.13
2023-07-23T03:40:22.414Z,2.73
2023-07-23T03:42:49.543Z,2.70
2023-07-23T03:45:17.185Z,2.77
2023-07-23T03:47:44.993Z,2.43
2023-07-23T03:50:12.650Z,2.40
2023-07-23T03:52:39.847Z,3.50
2023-07-23T03:55:07.408Z,2.30
2023-07-23T03:57:36.673Z,3.73
2023-07-23T04:00:07.295Z,2.20
2023-07-23T04:02:39.222Z,2.47
2023-07-23T04:05:06.876Z,2.60
2023-07-23T04:07:35.332Z,2.93
2023-07-23T04:10:04.772Z,2.67
2023-07-23T04:12:34.899Z,2.43
2023-07-23T04:15:05.999Z,2.50
2023-07-23T04:17:33.900Z,2.80
2023-07-23T04:20:01.512Z,2.60
2023-07-23T04:22:29.426Z,2.87
2023-07-23T04:24:57.180Z,2.20
2023-07-23T04:27:24.852Z,3.50
2023-07-23T04:29:52.979Z,2.47
2023-07-23T04:32:20.636Z,2.97
2023-07-23T04:34:48.286Z,2.80
2023-07-23T04:37:16.687Z,3.20
2023-07-23T04:39:44.218Z,2.83
2023-07-23T04:42:11.782Z,2.47
2023-07-23T04:44:39.314Z,2.47
2023-07-23T04:47:06.860Z,2.40
2023-07-23T04:49:33.992Z,3.87
2023-07-23T04:52:01.481Z,2.43
2023-07-23T04:54:29.012Z,1.83
2023-07-23T04:56:56.539Z,2.57
2023-07-23T04:59:24.196Z,2.27
2023-07-23T05:01:51.708Z,2.20
2023-07-23T05:04:19.251Z,2.50
2023-07-23T05:06:46.802Z,2.40
2023-07-23T05:09:14.368Z,2.33
2023-07-23T05:11:42.026Z,2.20
2023-07-23T05:14:09.584Z,2.73
2023-07-23T05:16:37.084Z,3.10
2023-07-23T05:19:05.107Z,2.63
2023-07-23T05:21:36.145Z,2.60
2023-07-23T05:24:04.269Z,1.90
2023-07-23T05:26:31.846Z,4.00
2023-07-23T05:28:59.358Z,2.50
2023-07-23T05:31:27.301Z,3.57
2023-07-23T05:33:54.876Z,2.63
2023-07-23T05:36:22.083Z,2.73
2023-07-23T05:38:49.582Z,3.00
2023-07-23T05:41:16.974Z,2.60
2023-07-23T05:43:44.128Z,2.87
2023-07-23T05:46:11.699Z,2.57
2023-07-23T05:48:39.303Z,1.83
2023-07-23T05:51:06.799Z,2.50
2023-07-23T05:53:34.419Z,1.97
2023-07-23T05:56:01.805Z,2.60
2023-07-23T05:58:29.246Z,2.00
2023-07-23T06:00:57.107Z,2.43
2023-07-23T06:03:24.375Z,3.53
2023-07-23T06:05:51.941Z,1.50
2023-07-23T06:08:19.501Z,1.77
2023-07-23T06:10:46.982Z,2.23
2023-07-23T06:13:14.485Z,2.67
2023-07-23T06:15:42.109Z,2.40
2023-07-23T06:18:09.336Z,2.17
2023-07-23T06:20:36.895Z,2.30
2023-07-23T06:23:04.860Z,2.97
2023-07-23T06:25:32.527Z,1.87
2023-07-23T06:27:59.624Z,1.63
2023-07-23T06:30:27.350Z,1.80
2023-07-23T06:32:54.994Z,2.53
2023-07-23T06:35:22.574Z,2.63
2023-07-23T06:37:50.103Z,1.90
2023-07-23T06:40:17.407Z,3.30
2023-07-23T06:42:45.700Z,1.83
2023-07-23T06:45:14.188Z,1.90
2023-07-23T06:47:42.823Z,1.83
2023-07-23T06:50:10.807Z,2.40
2023-07-23T06:52:38.348Z,1.57
2023-07-23T06:55:06.038Z,1.63
2023-07-23T06:57:33.667Z,2.80
2023-07-23T07:00:01.382Z,2.27
2023-07-23T07:02:29.101Z,1.97
2023-07-23T07:04:56.187Z,2.43
2023-07-23T07:07:23.662Z,2.53
2023-07-23T07:09:51.474Z,1.53
2023-07-23T07:12:19.002Z,2.27
2023-07-23T07:14:46.592Z,1.90
2023-07-23T07:17:14.145Z,1.50
2023-07-23T07:19:41.799Z,2.30
2023-07-23T07:22:09.296Z,3.43
2023-07-23T07:24:36.944Z,2.10
2023-07-23T07:27:09.516Z,2.10
2023-07-23T07:29:41.269Z,1.80
2023-07-23T07:32:10.514Z,2.40
2023-07-23T07:34:38.077Z,1.80
2023-07-23T07:37:05.885Z,2.47
2023-07-23T07:39:34.250Z,2.03
2023-07-23T07:42:01.497Z,2.17
2023-07-23T07:44:32.566Z,2.33
2023-07-23T07:47:01.221Z,2.30
2023-07-23T07:49:28.759Z,2.90
2023-07-23T07:51:56.422Z,2.00
2023-07-23T07:54:24.057Z,2.17
2023-07-23T07:56:52.280Z,2.20
2023-07-23T07:59:20.135Z,2.37
2023-07-23T08:01:47.804Z,3.43
2023-07-23T08:04:15.716Z,2.20
2023-07-23T08:06:44.383Z,2.30
2023-07-23T08:09:13.595Z,2.30
2023-07-23T08:11:41.872Z,2.10
2023-07-23T08:14:10.821Z,2.93
2023-07-23T08:16:38.527Z,2.30
2023-07-23T08:19:06.311Z,2.40
2023-07-23T08:21:34.251Z,1.97
2023-07-23T08:24:02.610Z,2.20
2023-07-23T08:26:35.654Z,2.73
2023-07-23T08:29:09.268Z,2.50
2023-07-23T08:31:37.505Z,1.90
2023-07-23T08:34:05.286Z,2.00
2023-07-23T08:36:33.145Z,1.87
2023-07-23T08:39:00.915Z,1.97
2023-07-23T08:41:34.380Z,1.70
2023-07-23T08:45:10.231Z,1.70
2023-07-23T08:47:39.851Z,2.20
2023-07-23T08:50:07.966Z,1.93
2023-07-23T08:52:36.628Z,1.80
2023-07-23T08:55:04.886Z,1.83
2023-07-23T08:57:34.805Z,1.97
2023-07-23T09:00:04.062Z,1.77
2023-07-23T09:02:33.681Z,1.73
2023-07-23T09:05:01.191Z,1.77
2023-07-23T09:07:28.830Z,0.77
2023-07-23T09:09:56.217Z,1.07
2023-07-23T09:12:23.362Z,1.07
2023-07-23T09:14:51.074Z,1.30
2023-07-23T09:17:22.495Z,1.70
2023-07-23T09:19:53.706Z,1.70
2023-07-23T09:22:21.456Z,1.20
2023-07-23T09:24:49.090Z,1.00
2023-07-23T09:27:17.509Z,1.37
2023-07-23T09:29:47.124Z,1.57
2023-07-23T09:32:26.986Z,1.10
2023-07-23T09:35:00.128Z,1.47
2023-07-23T09:37:28.507Z,1.40
2023-07-23T09:40:00.301Z,1.40
2023-07-23T09:42:28.052Z,1.37
2023-07-23T09:45:02.372Z,1.70
2023-07-23T09:47:30.558Z,1.50
2023-07-23T09:49:58.122Z,0.90
2023-07-23T09:52:38.251Z,0.87
2023-07-23T09:55:07.819Z,1.63
2023-07-23T09:57:37.697Z,0.90
2023-07-23T10:00:05.953Z,1.30
2023-07-23T10:02:46.844Z,1.30
2023-07-23T10:05:18.554Z,0.87
2023-07-23T10:07:49.094Z,1.47
2023-07-23T10:10:17.482Z,1.23
2023-07-23T10:12:44.955Z,1.00
2023-07-23T10:15:12.422Z,0.90
2023-07-23T10:17:52.163Z,1.20
2023-07-23T10:20:20.652Z,1.37
2023-07-23T10:22:48.955Z,1.20
2023-07-23T10:25:35.197Z,1.57
2023-07-23T10:28:09.733Z,1.07
2023-07-23T10:30:38.817Z,1.00
2023-07-23T10:33:12.596Z,1.37
2023-07-23T10:36:01.345Z,1.07
2023-07-23T10:38:35.196Z,0.77
2023-07-23T10:41:03.980Z,0.80
2023-07-23T10:43:45.726Z,1.00
2023-07-23T10:46:21.517Z,1.00
2023-07-23T10:48:53.515Z,1.10
2023-07-23T10:51:23.720Z,1.10
2023-07-23T10:54:07.715Z,0.77
2023-07-23T10:56:36.724Z,1.20
2023-07-23T10:59:20.891Z,1.30
2023-07-23T11:01:52.581Z,1.10
2023-07-23T11:04:27.843Z,1.73
2023-07-23T11:07:06.195Z,1.30
2023-07-23T11:09:36.697Z,1.63
2023-07-23T11:12:09.161Z,1.50
2023-07-23T11:14:37.093Z,1.50
2023-07-23T11:17:05.769Z,1.20
2023-07-23T11:19:34.080Z,1.03
2023-07-23T11:22:06.237Z,1.03
2023-07-23T11:24:33.800Z,1.30
2023-07-23T11:27:05.271Z,1.53
2023-07-23T11:29:35.223Z,1.17
2023-07-23T11:32:04.849Z,1.03
2023-07-23T11:34:33.829Z,1.27
2023-07-23T11:37:01.218Z,0.90
2023-07-23T11:39:28.462Z,1.03
2023-07-23T11:41:55.881Z,1.57
2023-07-23T11:44:23.691Z,1.10
2023-07-23T11:46:59.740Z,1.40
2023-07-23T11:49:26.955Z,1.17
2023-07-23T11:51:58.126Z,1.20
2023-07-23T11:54:25.664Z,1.77
2023-07-23T11:56:52.918Z,0.90
2023-07-23T11:59:20.288Z,1.00
2023-07-23T12:01:47.807Z,1.13
2023-07-23T12:04:15.387Z,1.30
2023-07-23T12:06:42.677Z,1.17
2023-07-23T12:09:13.006Z,1.03
2023-07-23T12:11:43.961Z,1.10
2023-07-23T12:14:16.208Z,0.97
2023-07-23T12:16:48.903Z,0.90
2023-07-23T12:19:18.918Z,1.57
2023-07-23T12:21:55.805Z,0.93
2023-07-23T12:24:27.858Z,1.00
2023-07-23T12:27:00.724Z,0.60
2023-07-23T12:29:29.862Z,1.00
2023-07-23T12:32:17.037Z,1.33
2023-07-23T12:34:49.956Z,0.70
2023-07-23T12:37:18.008Z,1.20
2023-07-23T12:39:49.376Z,1.27
2023-07-23T12:42:16.705Z,1.00
2023-07-23T12:44:44.245Z,1.13
2023-07-23T12:47:41.054Z,0.90
2023-07-23T12:50:09.882Z,1.53
2023-07-23T12:52:37.241Z,1.60
2023-07-23T12:55:05.506Z,1.23
2023-07-23T12:57:33.082Z,1.37
2023-07-23T13:00:00.246Z,1.20
2023-07-23T13:02:27.855Z,1.27
2023-07-23T13:04:55.021Z,1.60
2023-07-23T13:07:22.182Z,1.47
2023-07-23T13:09:51.242Z,1.10
2023-07-23T13:12:18.378Z,1.10
2023-07-23T13:14:45.497Z,0.87
2023-07-23T13:17:12.787Z,1.37
2023-07-23T13:19:40.451Z,0.90
2023-07-23T13:22:07.826Z,1.13
2023-07-23T13:24:35.045Z,1.17
2023-07-23T13:27:02.181Z,1.03
2023-07-23T13:29:29.686Z,1.70
2023-07-23T13:31:56.908Z,2.33
2023-07-23T13:34:24.532Z,1.30
2023-07-23T13:36:51.958Z,2.03
2023-07-23T13:39:19.249Z,1.00
2023-07-23T13:41:46.422Z,1.80
2023-07-23T13:44:14.198Z,1.07
2023-07-23T13:46:41.368Z,1.23
2023-07-23T13:49:11.761Z,1.00
2023-07-23T13:51:39.158Z,1.20
2023-07-23T13:54:06.290Z,1.17
2023-07-23T13:56:33.549Z,1.20
2023-07-23T13:59:00.897Z,1.13
2023-07-23T14:01:28.751Z,1.33
2023-07-23T14:03:56.095Z,1.63
2023-07-23T14:06:23.680Z,1.10
2023-07-23T14:08:51.380Z,1.40
2023-07-23T14:11:19.826Z,1.53
2023-07-23T14:13:47.094Z,1.67
2023-07-23T14:16:14.459Z,1.80
2023-07-23T14:18:41.657Z,1.33
2023-07-23T14:21:09.199Z,1.20
2023-07-23T14:23:36.748Z,0.70
2023-07-23T14:26:04.110Z,0.90
2023-07-23T14:28:31.414Z,1.47
2023-07-23T14:30:58.608Z,1.47
2023-07-23T14:33:25.816Z,1.60
2023-07-23T14:35:55.038Z,1.03
2023-07-23T14:38:22.200Z,0.80
2023-07-23T14:40:50.475Z,1.80
2023-07-23T14:43:17.604Z,1.37
2023-07-23T14:45:44.718Z,1.40
2023-07-23T14:48:11.937Z,1.20
2023-07-23T14:50:39.490Z,1.60
2023-07-23T14:53:06.627Z,1.87
2023-07-23T14:55:34.469Z,1.20
2023-07-23T14:58:01.760Z,1.10
2023-07-23T15:00:29.499Z,1.10
2023-07-23T15:02:57.165Z,1.43
2023-07-23T15:05:25.168Z,1.83
2023-07-23T15:07:53.003Z,1.00
2023-07-23T15:10:22.401Z,1.20
2023-07-23T15:12:50.181Z,1.67
2023-07-23T15:15:18.149Z,1.20
2023-07-23T15:17:45.823Z,1.00
2023-07-23T15:20:14.314Z,1.00
2023-07-23T15:22:42.058Z,1.20
2023-07-23T15:25:22.620Z,1.47
2023-07-23T15:27:52.766Z,1.20
2023-07-23T15:30:20.818Z,0.90
2023-07-23T15:32:48.404Z,1.33
2023-07-23T15:35:16.069Z,1.20
2023-07-23T15:37:43.400Z,1.43
2023-07-23T15:40:14.750Z,1.13
2023-07-23T15:42:42.178Z,1.40
2023-07-23T15:45:10.082Z,1.60
2023-07-23T15:47:37.260Z,1.50
2023-07-23T15:50:06.937Z,1.13
2023-07-23T15:52:34.120Z,1.60
2023-07-23T15:55:01.518Z,1.10
2023-07-23T15:57:28.772Z,1.20
2023-07-23T15:59:56.091Z,1.27
2023-07-23T16:02:23.325Z,1.00
2023-07-23T16:04:50.616Z,0.87
2023-07-23T16:07:17.975Z,1.63
2023-07-23T16:09:45.214Z,1.03
2023-07-23T16:12:12.699Z,1.43
2023-07-23T16:14:39.970Z,1.03
2023-07-23T16:17:07.295Z,1.13
2023-07-23T16:19:34.568Z,1.23
2023-07-23T16:22:01.775Z,1.57
2023-07-23T16:24:29.089Z,1.90
2023-07-23T16:26:56.386Z,1.80
2023-07-23T16:29:23.752Z,1.50
2023-07-23T16:31:51.471Z,1.40
2023-07-23T16:34:19.267Z,1.33
2023-07-23T16:36:50.805Z,1.40
2023-07-23T16:39:19.800Z,1.83
2023-07-23T16:41:47.823Z,1.77
2023-07-23T16:44:15.378Z,1.63
2023-07-23T16:46:42.684Z,1.23
2023-07-23T16:49:09.813Z,1.27
2023-07-23T16:51:37.008Z,1.10
2023-07-23T16:54:04.501Z,1.10
2023-07-23T16:56:32.275Z,1.17
2023-07-23T16:58:59.643Z,1.40
2023-07-23T17:01:27.639Z,1.13
2023-07-23T17:03:55.031Z,1.33
2023-07-23T17:06:24.201Z,1.90
2023-07-23T17:08:51.500Z,2.03
2023-07-23T17:11:26.188Z,1.30
2023-07-23T17:13:53.934Z,1.53
2023-07-23T17:16:21.182Z,1.03
2023-07-23T17:18:48.641Z,1.20
2023-07-23T17:21:15.989Z,1.30
2023-07-23T17:23:43.449Z,1.30
2023-07-23T17:26:10.517Z,1.40
2023-07-23T17:28:37.959Z,1.60
2023-07-23T17:31:05.164Z,1.80
2023-07-23T17:33:32.725Z,1.60
2023-07-23T17:35:59.962Z,1.00
2023-07-23T17:38:27.128Z,1.23
2023-07-23T17:40:54.506Z,1.20
2023-07-23T17:43:21.655Z,1.30
2023-07-23T17:45:48.854Z,1.03
2023-07-23T17:48:16.169Z,1.53
2023-07-23T17:50:43.391Z,1.47
2023-07-23T17:53:10.554Z,1.50
2023-07-23T17:55:37.709Z,1.30
2023-07-23T17:58:05.108Z,1.30
2023-07-23T18:00:32.370Z,1.37
2023-07-23T18:03:00.423Z,1.57
2023-07-23T18:05:27.625Z,1.70
2023-07-23T18:07:55.550Z,1.20
2023-07-23T18:10:22.938Z,1.33
2023-07-23T18:12:51.602Z,1.63
2023-07-23T18:15:18.874Z,1.30
2023-07-23T18:17:46.355Z,1.23
2023-07-23T18:20:13.751Z,1.20
2023-07-23T18:22:41.253Z,1.03
2023-07-23T18:25:09.336Z,1.20
2023-07-23T18:27:37.200Z,1.33
2023-07-23T18:30:05.214Z,1.07
2023-07-23T18:32:32.514Z,1.50
2023-07-23T18:34:59.864Z,1.47
2023-07-23T18:37:28.352Z,1.70
2023-07-23T18:39:55.690Z,1.60
2023-07-23T18:42:22.885Z,0.93
2023-07-23T18:44:50.438Z,1.67
2023-07-23T18:47:18.749Z,1.17
2023-07-23T18:49:46.364Z,1.23
2023-07-23T18:52:13.454Z,1.53
2023-07-23T18:54:40.604Z,1.33
2023-07-23T18:57:08.939Z,1.40
2023-07-23T18:59:36.099Z,1.10
2023-07-23T19:02:03.344Z,1.47
2023-07-23T19:04:46.645Z,1.47
2023-07-23T19:07:15.477Z,1.33
2023-07-23T19:09:42.817Z,1.90
2023-07-23T19:12:09.963Z,1.20
2023-07-23T19:14:37.238Z,1.30
2023-07-23T19:17:04.780Z,0.90
2023-07-23T19:19:32.464Z,1.30
2023-07-23T19:21:59.840Z,1.27
2023-07-23T19:24:27.019Z,1.20
2023-07-23T19:26:54.188Z,1.17
2023-07-23T19:29:21.332Z,1.20
2023-07-23T19:31:48.516Z,1.60
2023-07-23T19:34:15.630Z,1.33
2023-07-23T19:36:42.893Z,1.60
2023-07-23T19:39:10.082Z,1.20
2023-07-23T19:41:39.568Z,1.00
2023-07-23T19:44:06.811Z,1.30
2023-07-23T19:46:35.264Z,1.30
2023-07-23T19:49:02.668Z,1.20
2023-07-23T19:51:29.785Z,1.53
2023-07-23T19:53:57.563Z,1.30
2023-07-23T19:56:24.793Z,1.40
2023-07-23T19:58:52.009Z,1.57
2023-07-23T20:01:19.344Z,1.53
2023-07-23T20:03:50.698Z,1.17
2023-07-23T20:06:17.992Z,1.37
2023-07-23T20:08:45.130Z,0.80
2023-07-23T20:11:13.495Z,1.20
2023-07-23T20:13:40.662Z,2.20
2023-07-23T20:16:08.544Z,0.80
2023-07-23T20:18:35.806Z,1.27
2023-07-23T20:21:03.013Z,1.60
2023-07-23T20:23:30.143Z,1.43
2023-07-23T20:25:58.746Z,1.20
2023-07-23T20:28:26.676Z,1.57
2023-07-23T20:30:54.850Z,1.00
2023-07-23T20:33:22.811Z,1.20
2023-07-23T20:35:59.197Z,1.37
2023-07-23T20:38:28.873Z,1.17
2023-07-23T20:40:56.593Z,1.20
2023-07-23T20:43:23.934Z,1.13
2023-07-23T20:45:51.063Z,1.37
2023-07-23T20:48:18.318Z,1.13
2023-07-23T20:50:45.845Z,1.40
2023-07-23T20:53:13.230Z,1.10
2023-07-23T20:55:40.384Z,1.30
2023-07-23T20:58:07.716Z,1.23
2023-07-23T21:00:35.588Z,2.03
2023-07-23T21:03:02.876Z,1.77
2023-07-23T21:05:30.104Z,1.50
2023-07-23T21:07:57.404Z,1.30
2023-07-23T21:10:24.588Z,1.13
2023-07-23T21:12:51.737Z,1.27
2023-07-23T21:15:19.060Z,1.23
2023-07-23T21:17:46.593Z,1.00
2023-07-23T21:20:13.757Z,1.43
2023-07-23T21:22:40.893Z,1.10
2023-07-23T21:25:08.366Z,1.00
2023-07-23T21:27:35.905Z,0.90
2023-07-23T21:30:03.994Z,1.10
2023-07-23T21:32:31.276Z,0.90
2023-07-23T21:34:58.455Z,1.00
2023-07-23T21:37:27.420Z,1.30
2023-07-23T21:39:54.640Z,1.20
2023-07-23T21:42:21.790Z,1.33
2023-07-23T21:44:49.380Z,0.90
2023-07-23T21:47:16.640Z,1.30
2023-07-23T21:49:43.863Z,1.37
2023-07-23T21:52:11.040Z,1.10
2023-07-23T21:54:41.113Z,1.03
2023-07-23T21:57:08.961Z,1.13
2023-07-23T21:59:36.336Z,1.23
2023-07-23T22:02:03.662Z,0.97
2023-07-23T22:04:30.913Z,1.77
2023-07-23T22:06:58.197Z,1.27
2023-07-23T22:09:25.666Z,1.30
2023-07-23T22:11:52.820Z,1.23
2023-07-23T22:14:19.938Z,1.10
2023-07-23T22:16:47.243Z,1.17
2023-07-23T22:19:14.483Z,1.10
2023-07-23T22:21:41.731Z,0.90
2023-07-23T22:24:08.986Z,0.80
2023-07-23T22:26:36.174Z,1.27
2023-07-23T22:29:03.356Z,1.10
2023-07-23T22:31:30.531Z,1.20
2023-07-23T22:34:00.237Z,0.90
2023-07-23T22:36:28.165Z,0.80
2023-07-23T22:38:55.448Z,1.10
2023-07-23T22:41:22.775Z,1.10
2023-07-23T22:43:56.029Z,0.93
2023-07-23T22:46:26.005Z,1.30
2023-07-23T22:48:54.057Z,0.90
2023-07-23T22:51:21.245Z,0.80
2023-07-23T22:53:48.819Z,2.30
2023-07-23T22:56:17.269Z,1.70
2023-07-23T22:58:49.402Z,1.50
2023-07-23T23:01:18.780Z,1.23
2023-07-23T23:03:46.075Z,1.10
2023-07-23T23:06:13.651Z,1.13
2023-07-23T23:08:40.818Z,0.90
2023-07-23T23:11:08.095Z,1.10
2023-07-23T23:13:35.190Z,0.97
2023-07-23T23:16:02.873Z,1.37
2023-07-23T23:18:30.075Z,1.33
2023-07-23T23:20:57.464Z,1.30
2023-07-23T23:23:24.898Z,0.77
2023-07-23T23:25:52.802Z,1.13
2023-07-23T23:28:19.966Z,1.53
2023-07-23T23:30:53.517Z,1.00
2023-07-23T23:33:21.324Z,1.40
2023-07-23T23:35:48.538Z,1.33
2023-07-23T23:38:15.744Z,1.50
2023-07-23T23:40:43.030Z,1.00
2023-07-23T23:43:10.203Z,1.60
2023-07-23T23:45:37.692Z,1.30
2023-07-23T23:48:05.295Z,0.90
2023-07-23T23:50:32.558Z,1.00
2023-07-23T23:52:59.816Z,1.27
2023-07-23T23:55:27.106Z,1.10
2023-07-23T23:57:55.487Z,1.33
